KQFW

Hongcheon

Hongcheon, South Korea
METAR KQFW 221730Z AUTO 23002KT 2400 // OVC003 15/15 A2974 RMK A02 TSNO
Observed Flight Rules
May-22 @ 17:30 UTC (16 minutes ago) Instrument Flight Rules
Wind Visibility Clouds
230° at 2 knots 2,398 meters
  • Overcast at 300' AGL
Temperatures Readings
Current 15°C / 59°F
Dewpoint 15°C / 59°F
Humidity 100%
Altimeter 29.74" Hg
Pressure 1007 hPa
METAR KQFW 221730Z AUTO 23002KT 2400 // OVC003 15/15 A2974 RMK A02 TSNO
Observed Flight Rules
May-22 @ 17:30 UTC
(16 minutes ago)
LIFR
Wind Visibility
230° at 2 knots 2,398 meters
Clouds
  • Overcast at 300' AGL
Temperature Dewpoint
15°C / 59°F 15°C / 59°F
Humidity Altimeter Pressure
100% 29.74" Hg 1007 hPa